Blawenburg, New Jersey
Current Conditions -  °F | °C
As of 6:53 PM on Friday 21 Nov 2014 (Local Time) from KTTN Reporting Station
Clear Clear  
Wind Chill: -4°   Ceiling: Unl
Heat Index: -1°   Visibility: 10mi
Dew Point: -13°   Wind: 5mph
Humidity: 40%   Direction: 260°W
Pressure: 30.48"   Gusts: NA
Location:  40.41°N, 74.7°W
Report Text: KTTN 212353Z AUTO 26004KT 10SM CLR M01/M13 A3048 RMK AO2 SLP318 T10111133 10022 21011 51029
Loading
Personal Weather Stations






























Interactive Weather Map New forecast layout! Learn more

10-Day Weather Forecast

Advertisements
Track Severe Weather on mobile